createdAt,value
2023-01-03T00:01:10.397Z,13.25
2023-01-03T00:03:36.840Z,12.80
2023-01-03T00:06:03.973Z,10.55
2023-01-03T00:08:30.600Z,12.30
2023-01-03T00:10:57.020Z,9.18
2023-01-03T00:13:23.526Z,10.13
2023-01-03T00:15:49.889Z,9.35
2023-01-03T00:18:16.315Z,12.40
2023-01-03T00:20:42.949Z,11.40
2023-01-03T00:23:09.333Z,11.00
2023-01-03T00:25:35.705Z,8.80
2023-01-03T00:28:02.113Z,13.20
2023-01-03T00:30:28.947Z,9.27
2023-01-03T00:32:55.395Z,7.53
2023-01-03T00:35:22.185Z,9.95
2023-01-03T00:37:48.581Z,9.25
2023-01-03T00:40:15.072Z,13.20
2023-01-03T00:42:59.899Z,8.70
2023-01-03T00:45:28.087Z,7.75
2023-01-03T00:47:56.281Z,7.15
2023-01-03T00:50:22.716Z,12.23
2023-01-03T00:52:49.111Z,10.20
2023-01-03T00:55:15.572Z,8.60
2023-01-03T00:57:43.500Z,10.73
2023-01-03T01:00:10.880Z,8.48
2023-01-03T01:02:37.730Z,9.50
2023-01-03T01:05:05.387Z,10.32
2023-01-03T01:07:31.762Z,8.18
2023-01-03T01:09:58.148Z,12.50
2023-01-03T01:12:24.517Z,12.35
2023-01-03T01:14:50.962Z,12.90
2023-01-03T01:17:22.360Z,10.77
2023-01-03T01:19:49.106Z,12.40
2023-01-03T01:22:15.551Z,12.85
2023-01-03T01:24:42.318Z,11.20
2023-01-03T01:27:08.884Z,10.43
2023-01-03T01:29:36.818Z,12.70
2023-01-03T01:32:04.098Z,9.88
2023-01-03T01:34:31.742Z,11.63
2023-01-03T01:36:58.338Z,9.80
2023-01-03T01:39:27.891Z,10.27
2023-01-03T01:42:19.691Z,9.82
2023-01-03T01:44:57.383Z,12.60
2023-01-03T01:47:39.132Z,11.38
2023-01-03T01:50:11.781Z,9.77
2023-01-03T01:55:13.637Z,14.07
2023-01-03T01:57:41.902Z,14.38
2023-01-03T02:00:09.846Z,16.75
2023-01-03T02:02:44.880Z,15.10
2023-01-03T02:05:11.992Z,12.75
2023-01-03T02:07:39.553Z,14.20
2023-01-03T02:10:06.771Z,14.90
2023-01-03T02:13:05.476Z,13.13
2023-01-03T02:16:11.992Z,14.23
2023-01-03T02:19:32.803Z,16.13
2023-01-03T02:22:05.002Z,19.35
2023-01-03T02:25:04.260Z,15.30
2023-01-03T02:27:45.550Z,12.32
2023-01-03T02:30:28.665Z,15.82
2023-01-03T02:33:07.051Z,11.80
2023-01-03T02:35:49.199Z,14.80
2023-01-03T02:38:39.261Z,12.38
2023-01-03T02:41:16.819Z,12.02
2023-01-03T02:44:04.878Z,10.52
2023-01-03T02:46:56.707Z,11.93
2023-01-03T02:49:30.736Z,10.38
2023-01-03T02:52:32.640Z,12.95
2023-01-03T02:55:14.980Z,11.05
2023-01-03T02:57:48.459Z,14.40
2023-01-03T03:02:51.692Z,13.15
2023-01-03T03:05:24.716Z,13.82
2023-01-03T03:07:52.308Z,11.30
2023-01-03T03:10:37.991Z,13.48
2023-01-03T03:13:19.884Z,11.45
2023-01-03T03:16:05.458Z,10.45
2023-01-03T03:18:55.533Z,15.00
2023-01-03T03:21:43.234Z,11.30
2023-01-03T03:24:34.645Z,13.55
2023-01-03T03:27:24.846Z,11.35
2023-01-03T03:29:56.034Z,13.13
2023-01-03T03:32:26.151Z,12.80
2023-01-03T03:34:56.751Z,18.25
2023-01-03T03:37:26.894Z,20.75
2023-01-03T03:40:13.383Z,10.45
2023-01-03T03:43:09.656Z,12.18
2023-01-03T03:45:50.648Z,12.02
2023-01-03T03:48:28.730Z,12.65
2023-01-03T03:51:07.083Z,13.77
2023-01-03T03:53:36.633Z,10.20
2023-01-03T03:56:10.347Z,13.77
2023-01-03T03:58:40.497Z,10.52
2023-01-03T04:01:11.229Z,9.27
2023-01-03T04:03:40.643Z,11.65
2023-01-03T04:06:13.711Z,10.13
2023-01-03T04:08:40.152Z,12.45
2023-01-03T04:11:06.999Z,10.75
2023-01-03T04:13:35.355Z,11.18
2023-01-03T04:16:02.431Z,12.57
2023-01-03T04:18:28.905Z,11.77
2023-01-03T04:20:55.342Z,12.15
2023-01-03T04:23:21.969Z,11.68
2023-01-03T04:25:51.013Z,9.73
2023-01-03T04:28:18.058Z,11.88
2023-01-03T04:30:45.232Z,12.93
2023-01-03T04:33:11.746Z,9.95
2023-01-03T04:35:38.336Z,13.15
2023-01-03T04:38:05.261Z,11.65
2023-01-03T04:40:34.456Z,9.27
2023-01-03T04:43:19.654Z,12.07
2023-01-03T04:45:48.423Z,18.20
2023-01-03T04:48:15.309Z,15.70
2023-01-03T04:50:41.764Z,10.40
2023-01-03T04:53:08.180Z,12.48
2023-01-03T04:55:34.579Z,12.80
2023-01-03T04:58:01.027Z,14.40
2023-01-03T05:00:27.907Z,15.55
2023-01-03T05:02:54.421Z,9.95
2023-01-03T05:05:20.807Z,11.50
2023-01-03T05:07:47.222Z,13.57
2023-01-03T05:10:13.624Z,12.77
2023-01-03T05:12:39.998Z,16.20
2023-01-03T05:15:07.054Z,15.45
2023-01-03T05:17:33.456Z,13.75
2023-01-03T05:20:31.907Z,15.20
2023-01-03T05:23:17.347Z,16.67
2023-01-03T05:25:49.848Z,10.93
2023-01-03T05:28:18.114Z,12.43
2023-01-03T05:30:44.550Z,16.27
2023-01-03T05:33:10.965Z,16.33
2023-01-03T05:35:38.172Z,15.65
2023-01-03T05:38:04.563Z,16.00
2023-01-03T05:40:34.913Z,17.27
2023-01-03T05:43:04.131Z,14.63
2023-01-03T05:45:30.795Z,14.80
2023-01-03T05:47:58.547Z,19.42
2023-01-03T05:50:25.495Z,14.70
2023-01-03T05:52:52.433Z,15.45
2023-01-03T05:55:18.853Z,19.48
2023-01-03T05:57:47.131Z,12.98
2023-01-03T06:00:14.658Z,14.60
2023-01-03T06:02:41.199Z,22.52
2023-01-03T06:05:08.091Z,14.57
2023-01-03T06:07:36.514Z,12.68
2023-01-03T06:10:07.086Z,14.60
2023-01-03T06:12:33.827Z,11.00
2023-01-03T06:15:00.292Z,11.95
2023-01-03T06:17:45.677Z,11.88
2023-01-03T06:20:12.092Z,10.35
2023-01-03T06:22:38.590Z,14.40
2023-01-03T06:25:05.380Z,15.45
2023-01-03T06:27:31.874Z,15.70
2023-01-03T06:29:58.353Z,13.27
2023-01-03T06:32:25.004Z,21.30
2023-01-03T06:34:51.462Z,16.95
2023-01-03T06:37:17.857Z,15.40
2023-01-03T06:39:45.683Z,14.75
2023-01-03T06:42:30.693Z,12.68
2023-01-03T06:45:15.593Z,14.55
2023-01-03T06:48:00.376Z,14.25
2023-01-03T06:50:45.118Z,16.13
2023-01-03T06:53:21.480Z,15.50
2023-01-03T06:55:54.429Z,16.73
2023-01-03T06:58:22.993Z,15.40
2023-01-03T07:00:49.922Z,17.05
2023-01-03T07:03:16.310Z,15.68
2023-01-03T07:05:42.769Z,13.40
2023-01-03T07:08:09.439Z,12.63
2023-01-03T07:10:35.846Z,12.82
2023-01-03T07:13:20.939Z,14.68
2023-01-03T07:15:47.443Z,16.10
2023-01-03T07:18:14.173Z,16.45
2023-01-03T07:20:44.965Z,14.43
2023-01-03T07:23:12.765Z,15.23
2023-01-03T07:25:41.528Z,15.82
2023-01-03T07:28:11.098Z,14.38
2023-01-03T07:30:45.341Z,14.93
2023-01-03T07:33:13.799Z,12.30
2023-01-03T07:35:40.394Z,16.35
2023-01-03T07:38:07.584Z,16.17
2023-01-03T07:40:34.195Z,12.95
2023-01-03T07:43:18.921Z,12.90
2023-01-03T07:45:46.114Z,16.98
2023-01-03T07:48:13.280Z,13.27
2023-01-03T07:50:40.202Z,16.55
2023-01-03T07:53:08.620Z,14.98
2023-01-03T07:55:36.890Z,17.75
2023-01-03T07:58:03.583Z,12.60
2023-01-03T08:00:30.097Z,12.20
2023-01-03T08:02:57.058Z,16.13
2023-01-03T08:05:24.856Z,14.35
2023-01-03T08:07:52.601Z,12.25
2023-01-03T08:10:38.871Z,16.05
2023-01-03T08:13:18.043Z,14.52
2023-01-03T08:15:49.524Z,12.77
2023-01-03T08:18:19.208Z,15.27
2023-01-03T08:20:46.487Z,15.35
2023-01-03T08:23:13.279Z,12.45
2023-01-03T08:25:40.118Z,15.02
2023-01-03T08:28:08.452Z,12.77
2023-01-03T08:30:41.048Z,11.85
2023-01-03T08:33:10.695Z,14.50
2023-01-03T08:35:39.305Z,12.60
2023-01-03T08:38:09.431Z,14.55
2023-01-03T08:40:41.892Z,13.07
2023-01-03T08:43:10.819Z,12.52
2023-01-03T08:45:38.525Z,11.48
2023-01-03T08:48:06.480Z,10.02
2023-01-03T08:50:32.983Z,9.52
2023-01-03T08:52:59.776Z,10.88
2023-01-03T08:55:26.699Z,10.75
2023-01-03T08:57:53.416Z,10.60
2023-01-03T09:00:19.871Z,15.13
2023-01-03T09:02:46.653Z,11.80
2023-01-03T09:05:13.237Z,9.93
2023-01-03T09:07:39.952Z,9.90
2023-01-03T09:10:06.915Z,10.98
2023-01-03T09:12:33.296Z,10.65
2023-01-03T09:14:59.693Z,11.85
2023-01-03T09:17:26.125Z,11.48
2023-01-03T09:19:52.529Z,8.82
2023-01-03T09:22:19.210Z,11.88
2023-01-03T09:24:45.654Z,9.18
2023-01-03T09:27:12.121Z,10.88
2023-01-03T09:29:38.619Z,10.38
2023-01-03T09:32:05.278Z,12.68
2023-01-03T09:34:31.927Z,12.00
2023-01-03T09:36:58.850Z,9.73
2023-01-03T09:39:25.281Z,9.40
2023-01-03T09:42:11.648Z,11.70
2023-01-03T09:44:40.455Z,11.90
2023-01-03T09:47:10.158Z,8.98
2023-01-03T09:49:57.691Z,8.50
2023-01-03T09:52:46.595Z,10.45
2023-01-03T09:55:43.444Z,7.68
2023-01-03T09:58:34.018Z,9.15
2023-01-03T10:01:37.808Z,8.55
2023-01-03T10:04:33.948Z,9.70
2023-01-03T10:07:19.575Z,11.23
2023-01-03T10:09:48.930Z,8.05
2023-01-03T10:12:38.593Z,6.88
2023-01-03T10:15:18.203Z,10.05
2023-01-03T10:18:23.622Z,8.55
2023-01-03T10:20:56.967Z,7.55
2023-01-03T10:23:23.486Z,11.63
2023-01-03T10:25:49.904Z,9.05
2023-01-03T10:28:18.459Z,7.32
2023-01-03T10:31:07.626Z,8.10
2023-01-03T10:33:40.769Z,9.13
2023-01-03T10:36:09.222Z,12.90
2023-01-03T10:38:44.858Z,9.73
2023-01-03T10:41:45.644Z,7.95
2023-01-03T10:44:30.498Z,6.63
2023-01-03T10:47:00.607Z,6.85
2023-01-03T10:49:31.721Z,7.35
2023-01-03T10:52:29.482Z,9.23
2023-01-03T10:55:01.064Z,7.88
2023-01-03T10:57:58.809Z,12.23
2023-01-03T11:00:27.160Z,8.82
2023-01-03T11:02:55.289Z,8.10
2023-01-03T11:05:25.243Z,8.88
2023-01-03T11:07:57.634Z,7.28
2023-01-03T11:10:30.064Z,9.10
2023-01-03T11:12:56.503Z,7.20
2023-01-03T11:15:37.843Z,5.18
2023-01-03T11:18:17.056Z,6.68
2023-01-03T11:21:11.619Z,6.95
2023-01-03T11:24:02.357Z,9.57
2023-01-03T11:26:51.373Z,10.07
2023-01-03T11:29:59.085Z,5.90
2023-01-03T11:32:40.715Z,10.35
2023-01-03T11:35:34.268Z,6.97
2023-01-03T11:38:12.543Z,8.27
2023-01-03T11:40:48.535Z,6.50
2023-01-03T11:43:36.567Z,6.82
2023-01-03T11:46:30.418Z,6.53
2023-01-03T11:52:15.986Z,5.35
2023-01-03T11:55:05.228Z,5.20
2023-01-03T11:57:59.095Z,6.70
2023-01-03T12:00:46.411Z,10.15
2023-01-03T12:03:39.144Z,5.85
2023-01-03T12:06:25.033Z,6.18
2023-01-03T12:08:57.742Z,8.27
2023-01-03T12:11:44.479Z,7.88
2023-01-03T12:14:17.603Z,5.88
2023-01-03T12:16:48.981Z,5.55
2023-01-03T12:19:49.790Z,4.55
2023-01-03T12:22:26.579Z,6.15
2023-01-03T12:25:04.986Z,6.32
2023-01-03T12:27:42.010Z,6.65
2023-01-03T12:30:31.782Z,5.65
2023-01-03T12:33:31.205Z,5.95
2023-01-03T12:36:24.200Z,4.63
2023-01-03T12:38:58.396Z,6.35
2023-01-03T12:41:35.114Z,10.32
2023-01-03T12:44:11.926Z,5.38
2023-01-03T12:46:45.461Z,5.47
2023-01-03T12:49:28.746Z,8.70
2023-01-03T12:51:55.125Z,7.22
2023-01-03T12:54:40.019Z,7.22
2023-01-03T12:57:21.640Z,5.55
2023-01-03T12:59:54.314Z,7.72
2023-01-03T13:02:30.090Z,2.95
2023-01-03T13:05:14.724Z,4.93
2023-01-03T13:07:46.492Z,7.55
2023-01-03T13:10:19.740Z,4.70
2023-01-03T13:12:52.472Z,6.13
2023-01-03T13:15:36.111Z,5.13
2023-01-03T13:18:20.898Z,5.70
2023-01-03T13:20:52.473Z,4.57
2023-01-03T13:23:57.779Z,5.05
2023-01-03T13:26:26.243Z,5.47
2023-01-03T13:29:31.100Z,3.17
2023-01-03T13:32:38.281Z,5.07
2023-01-03T13:35:04.898Z,6.15
2023-01-03T13:37:44.446Z,5.40
2023-01-03T13:40:21.221Z,4.57
2023-01-03T13:42:47.722Z,5.10
2023-01-03T13:45:19.984Z,6.95
2023-01-03T13:47:49.329Z,2.40
2023-01-03T13:50:26.528Z,4.25
2023-01-03T13:52:58.470Z,5.25
2023-01-03T13:55:46.627Z,4.05
2023-01-03T13:58:48.488Z,5.30
2023-01-03T14:01:45.427Z,2.92
2023-01-03T14:04:39.465Z,3.05
2023-01-03T14:10:08.627Z,4.45
2023-01-03T14:13:03.086Z,2.33
2023-01-03T14:15:32.436Z,3.30
2023-01-03T14:18:07.726Z,2.22
2023-01-03T14:20:36.564Z,2.97
2023-01-03T14:23:39.671Z,1.58
2023-01-03T14:25:54.329Z,2.63
2023-01-03T14:28:24.403Z,4.75
2023-01-03T14:31:07.681Z,3.08
2023-01-03T14:33:41.291Z,1.77
2023-01-03T14:36:16.520Z,2.78
2023-01-03T14:39:01.431Z,2.80
2023-01-03T14:41:37.977Z,2.17
2023-01-03T14:44:14.322Z,3.60
2023-01-03T14:46:50.657Z,3.88
2023-01-03T14:49:35.066Z,4.93
2023-01-03T14:52:06.801Z,2.33
2023-01-03T14:54:33.993Z,2.95
2023-01-03T14:57:02.013Z,4.60
2023-01-03T14:59:29.202Z,3.10
2023-01-03T15:01:55.994Z,1.95
2023-01-03T15:04:24.346Z,3.20
2023-01-03T15:07:13.196Z,2.38
2023-01-03T15:09:40.249Z,2.83
2023-01-03T15:12:07.052Z,2.30
2023-01-03T15:14:38.890Z,3.20
2023-01-03T15:17:16.307Z,2.65
2023-01-03T15:19:56.778Z,5.50
2023-01-03T15:22:32.371Z,4.45
2023-01-03T15:25:16.088Z,4.53
2023-01-03T15:30:22.096Z,6.68
2023-01-03T15:33:03.206Z,4.90
2023-01-03T15:35:39.944Z,4.75
2023-01-03T15:38:15.378Z,4.68
2023-01-03T15:40:43.839Z,5.60
2023-01-03T15:43:23.394Z,3.05
2023-01-03T15:46:16.310Z,4.55
2023-01-03T15:48:56.710Z,4.40
2023-01-03T15:51:23.128Z,3.20
2023-01-03T15:53:49.602Z,5.57
2023-01-03T15:56:18.823Z,3.33
2023-01-03T15:58:46.801Z,4.78
2023-01-03T16:01:13.711Z,5.35
2023-01-03T16:03:40.626Z,3.08
2023-01-03T16:06:07.146Z,6.25
2023-01-03T16:08:38.944Z,7.95
2023-01-03T16:11:15.555Z,4.78
2023-01-03T16:13:47.820Z,3.40
2023-01-03T16:16:19.171Z,6.00
2023-01-03T16:18:46.111Z,3.58
2023-01-03T16:21:13.503Z,4.97
2023-01-03T16:23:40.069Z,4.00
2023-01-03T16:26:07.629Z,4.25
2023-01-03T16:28:34.854Z,4.50
2023-01-03T16:31:07.043Z,4.72
2023-01-03T16:33:35.768Z,3.30
2023-01-03T16:36:04.340Z,3.25
2023-01-03T16:38:33.021Z,6.18
2023-01-03T16:40:59.608Z,5.32
2023-01-03T16:43:27.258Z,3.22
2023-01-03T16:45:58.621Z,6.15
2023-01-03T16:48:28.336Z,3.25
2023-01-03T16:50:55.175Z,8.32
2023-01-03T16:53:28.219Z,4.53
2023-01-03T16:55:56.175Z,5.15
2023-01-03T16:58:24.023Z,3.45
2023-01-03T17:00:52.813Z,8.15
2023-01-03T17:03:20.187Z,5.35
2023-01-03T17:05:47.703Z,4.90
2023-01-03T17:08:20.409Z,4.70
2023-01-03T17:10:49.556Z,6.40
2023-01-03T17:13:26.127Z,8.27
2023-01-03T17:15:53.888Z,5.10
2023-01-03T17:18:38.485Z,6.60
2023-01-03T17:21:10.060Z,8.20
2023-01-03T17:23:39.821Z,6.72
2023-01-03T17:26:06.826Z,3.83
2023-01-03T17:28:34.867Z,5.80
2023-01-03T17:31:01.298Z,4.57
2023-01-03T17:33:33.822Z,7.03
2023-01-03T17:36:00.920Z,7.32
2023-01-03T17:38:34.703Z,6.50
2023-01-03T17:41:01.096Z,6.25
2023-01-03T17:43:28.666Z,4.90
2023-01-03T17:46:22.623Z,7.22
2023-01-03T17:49:09.209Z,8.23
2023-01-03T17:51:35.776Z,5.43
2023-01-03T17:54:02.214Z,6.18
2023-01-03T17:56:29.688Z,5.60
2023-01-03T17:58:56.946Z,7.55
2023-01-03T18:01:23.952Z,5.93
2023-01-03T18:03:50.699Z,7.60
2023-01-03T18:06:23.643Z,7.22
2023-01-03T18:08:52.265Z,9.68
2023-01-03T18:11:26.809Z,7.93
2023-01-03T18:13:53.382Z,8.48
2023-01-03T18:16:22.386Z,5.38
2023-01-03T18:18:49.289Z,4.32
2023-01-03T18:21:24.479Z,6.43
2023-01-03T18:23:56.260Z,6.50
2023-01-03T18:26:23.325Z,6.55
2023-01-03T18:28:49.869Z,6.15
2023-01-03T18:31:18.723Z,6.78
2023-01-03T18:33:45.505Z,6.90
2023-01-03T18:36:24.322Z,9.27
2023-01-03T18:38:52.208Z,10.73
2023-01-03T18:41:25.194Z,7.25
2023-01-03T18:43:51.569Z,8.85
2023-01-03T18:46:19.918Z,8.85
2023-01-03T18:48:46.338Z,5.93
2023-01-03T18:51:18.268Z,11.77
2023-01-03T18:53:48.070Z,7.22
2023-01-03T18:56:26.932Z,8.10
2023-01-03T18:59:01.566Z,6.68
2023-01-03T19:01:28.696Z,8.98
2023-01-03T19:03:55.325Z,4.18
2023-01-03T19:06:30.483Z,4.05
2023-01-03T19:09:02.391Z,4.85
2023-01-03T19:11:34.591Z,7.47
2023-01-03T19:14:02.989Z,7.00
2023-01-03T19:16:34.806Z,7.15
2023-01-03T19:19:02.736Z,6.05
2023-01-03T19:21:33.122Z,8.75
2023-01-03T19:24:12.441Z,7.32
2023-01-03T19:27:23.440Z,7.05
2023-01-03T19:29:51.465Z,9.27
2023-01-03T19:32:21.151Z,7.20
2023-01-03T19:34:48.213Z,9.23
2023-01-03T19:37:14.614Z,9.30
2023-01-03T19:39:41.344Z,6.35
2023-01-03T19:42:32.667Z,5.53
2023-01-03T19:45:00.835Z,7.85
2023-01-03T19:47:28.615Z,5.20
2023-01-03T19:49:55.835Z,7.57
2023-01-03T19:52:22.253Z,8.02
2023-01-03T19:54:48.700Z,7.07
2023-01-03T19:57:23.971Z,5.57
2023-01-03T19:59:56.631Z,10.23
2023-01-03T20:02:32.714Z,7.10
2023-01-03T20:05:00.194Z,8.32
2023-01-03T20:07:26.719Z,7.00
2023-01-03T20:09:53.167Z,10.05
2023-01-03T20:12:25.110Z,6.72
2023-01-03T20:14:53.827Z,5.82
2023-01-03T20:17:22.806Z,6.00
2023-01-03T20:19:49.483Z,5.15
2023-01-03T20:22:37.747Z,6.32
2023-01-03T20:25:04.182Z,6.60
2023-01-03T20:27:30.608Z,5.38
2023-01-03T20:29:56.995Z,6.35
2023-01-03T20:32:24.686Z,8.02
2023-01-03T20:34:51.111Z,7.60
2023-01-03T20:37:20.657Z,5.55
2023-01-03T20:39:47.161Z,7.10
2023-01-03T20:42:24.731Z,6.07
2023-01-03T20:44:51.161Z,5.88
2023-01-03T20:47:23.299Z,6.10
2023-01-03T20:49:50.755Z,10.15
2023-01-03T20:52:17.920Z,5.75
2023-01-03T20:54:44.291Z,5.53
2023-01-03T20:57:18.277Z,8.80
2023-01-03T20:59:44.872Z,7.93
2023-01-03T21:02:12.412Z,6.80
2023-01-03T21:04:39.680Z,5.00
2023-01-03T21:07:11.679Z,6.18
2023-01-03T21:09:38.409Z,6.20
2023-01-03T21:12:04.979Z,6.60
2023-01-03T21:14:31.358Z,6.82
2023-01-03T21:16:57.867Z,8.85
2023-01-03T21:19:24.474Z,7.53
2023-01-03T21:21:55.323Z,5.82
2023-01-03T21:24:23.753Z,9.85
2023-01-03T21:26:50.415Z,6.18
2023-01-03T21:29:17.062Z,6.05
2023-01-03T21:31:43.821Z,8.90
2023-01-03T21:34:18.742Z,11.40
2023-01-03T21:36:45.163Z,8.23
2023-01-03T21:39:11.575Z,8.45
2023-01-03T21:41:58.225Z,5.90
2023-01-03T21:44:24.630Z,6.82
2023-01-03T21:46:51.107Z,6.45
2023-01-03T21:49:17.544Z,6.35
2023-01-03T21:51:43.921Z,9.00
2023-01-03T21:54:10.438Z,8.02
2023-01-03T21:56:45.127Z,10.63
2023-01-03T21:59:16.393Z,7.45
2023-01-03T22:02:03.138Z,8.35
2023-01-03T22:04:30.210Z,9.82
2023-01-03T22:07:00.454Z,6.50
2023-01-03T22:09:46.655Z,5.82
2023-01-03T22:12:15.609Z,8.07
2023-01-03T22:14:43.445Z,8.88
2023-01-03T22:17:09.836Z,7.75
2023-01-03T22:19:36.200Z,5.68
2023-01-03T22:22:02.607Z,9.88
2023-01-03T22:24:29.557Z,6.57
2023-01-03T22:26:55.931Z,5.60
2023-01-03T22:29:22.370Z,5.95
2023-01-03T22:31:48.798Z,7.10
2023-01-03T22:34:15.217Z,8.60
2023-01-03T22:36:41.663Z,5.35
2023-01-03T22:39:08.020Z,4.95
2023-01-03T22:41:34.424Z,10.35
2023-01-03T22:44:00.807Z,7.28
2023-01-03T22:46:27.471Z,6.43
2023-01-03T22:48:54.887Z,7.30
2023-01-03T22:51:21.879Z,8.25
2023-01-03T22:53:49.099Z,7.13
2023-01-03T22:56:17.045Z,7.50
2023-01-03T22:58:44.731Z,9.55
2023-01-03T23:01:17.967Z,7.03
2023-01-03T23:03:46.324Z,5.85
2023-01-03T23:06:15.983Z,8.73
2023-01-03T23:08:43.195Z,7.72
2023-01-03T23:11:34.264Z,7.32
2023-01-03T23:14:07.496Z,4.43
2023-01-03T23:16:34.473Z,6.25
2023-01-03T23:19:11.557Z,6.70
2023-01-03T23:21:38.396Z,9.00
2023-01-03T23:24:05.187Z,10.25
2023-01-03T23:26:31.792Z,8.88
2023-01-03T23:29:00.106Z,6.32
2023-01-03T23:31:27.456Z,9.77
2023-01-03T23:33:55.643Z,6.07
2023-01-03T23:36:22.451Z,5.05
2023-01-03T23:38:49.004Z,9.18
2023-01-03T23:41:16.246Z,6.95
2023-01-03T23:43:42.975Z,7.63
2023-01-03T23:46:15.122Z,7.53
2023-01-03T23:48:41.784Z,5.30
2023-01-03T23:51:10.095Z,6.20
2023-01-03T23:53:38.248Z,7.65
2023-01-03T23:56:06.160Z,7.45
2023-01-03T23:58:32.707Z,8.00
